Chievres, Belgium
Current Conditions -  °F | °C
As of 2:03 PM on Saturday 25 Oct 2014 (Local Time) from EBCV Reporting Station
Broken Clouds Broken Clouds  
Wind Chill: 59°   Ceiling: 4800
Heat Index: 59°   Visibility: 6mi
Dew Point: 55°   Wind: 7mph
Humidity: 88%   Direction: 270°W
Pressure: 30.12"   Gusts: NA
Location:  50.58°N, 3.8°E
Report Text: EBCV 251203Z AUTO 27006KT 9999 FEW011/// SCT022/// BKN048/// 15/13 Q1020 WHT
Loading
Personal Weather Stations






























Interactive Weather Map
Tropical Storm Tracking
New forecast layout! Learn more

10-Day Weather Forecast

Advertisements
Track Severe Weather on mobile